Time;durP1;ratioP1;P1;durP2;ratioP2;P2;SDS_P1;SDS_P2;PMS_P1;PMS_P2;Temp;Humidity;BMP_temperature;BMP_pressure;BME280_temperature;BME280_humidity;BME280_pressure;Samples;Min_cycle;Max_cycle;Signal;HPM_P1;HPM_P2
2022/08/23 00:01:25;;;;;;;12.60;6.00;;;17.00;99.90;;;;;;5094624;28;20048;-72
2022/08/23 00:03:53;;;;;;;15.48;6.38;;;17.00;99.90;;;;;;5112860;28;20047;-72
2022/08/23 00:06:21;;;;;;;17.05;6.18;;;17.20;99.90;;;;;;5112859;28;20051;-72
2022/08/23 00:08:48;;;;;;;13.18;6.10;;;17.10;99.90;;;;;;5094692;28;20079;-72
2022/08/23 00:11:24;;;;;;;12.13;5.18;;;17.00;99.90;;;;;;5112641;28;20544;-72
2022/08/23 00:13:50;;;;;;;;;;;17.30;99.90;;;;;;5113278;28;20052;-73
2022/08/23 00:16:16;;;;;;;12.80;5.35;;;17.20;99.90;;;;;;5112726;28;20416;-73
2022/08/23 00:18:41;;;;;;;8.50;5.30;;;17.10;99.90;;;;;;5112681;28;20066;-72
2022/08/23 00:21:07;;;;;;;;;;;16.90;99.90;;;;;;5113321;28;20164;-72
2022/08/23 00:23:32;;;;;;;12.43;7.20;;;17.20;99.90;;;;;;5094398;28;19927;-72
2022/08/23 00:26:01;;;;;;;;;;;16.90;99.90;;;;;;5112949;28;20043;-73
2022/08/23 00:28:28;;;;;;;13.63;6.50;;;16.90;99.90;;;;;;5112206;28;19924;-73
2022/08/23 00:30:54;;;;;;;17.80;7.68;;;16.60;99.90;;;;;;5112570;28;20051;-73
2022/08/23 00:33:20;;;;;;;15.93;6.78;;;16.90;99.90;;;;;;5112460;28;20126;-72
2022/08/23 00:35:46;;;;;;;13.18;6.88;;;17.10;99.90;;;;;;5112515;28;20124;-72
2022/08/23 00:38:11;;;;;;;11.90;7.22;;;16.80;99.90;;;;;;5093942;28;20047;-73
2022/08/23 00:40:37;;;;;;;;;;;17.20;99.90;;;;;;5112838;28;20051;-74
2022/08/23 00:49:11;;;;;;;21.25;8.40;;;17.00;99.90;;;;;;5112237;28;20116;-72
2022/08/23 00:51:56;;;;;;;10.82;7.07;;;17.10;99.90;;;;;;5116219;28;20100;-73
2022/08/23 00:54:23;;;;;;;10.82;7.97;;;16.90;99.90;;;;;;5116490;28;20059;-73
2022/08/23 00:56:50;;;;;;;15.90;8.65;;;16.90;99.90;;;;;;5116412;28;20062;-73
2022/08/23 00:59:16;;;;;;;16.13;9.38;;;17.00;99.90;;;;;;5116398;28;20046;-73
2022/08/23 01:01:42;;;;;;;;;;;17.20;99.90;;;;;;5116779;28;20101;-73
2022/08/23 01:04:11;;;;;;;16.93;10.57;;;16.60;99.90;;;;;;5098282;28;19920;-72
2022/08/23 01:06:43;;;;;;;20.10;10.95;;;16.60;99.90;;;;;;5116023;28;20047;-71
2022/08/23 01:09:14;;;;;;;16.15;10.32;;;16.70;99.90;;;;;;5116142;28;20051;-73
2022/08/23 01:11:43;;;;;;;19.75;9.40;;;17.00;99.90;;;;;;5116186;28;20047;-72
2022/08/23 01:14:17;;;;;;;14.23;9.55;;;17.00;99.90;;;;;;5116139;28;20070;-73
2022/08/23 01:17:09;;;;;;;16.90;9.65;;;16.80;99.90;;;;;;5116078;28;20406;-73
2022/08/23 01:19:47;;;;;;;18.27;10.68;;;16.90;99.90;;;;;;5102253;28;20407;-73
2022/08/23 01:22:22;;;;;;;9.10;7.20;;;16.80;99.90;;;;;;5115559;28;20058;-74
2022/08/23 01:24:49;;;;;;;17.88;8.82;;;17.00;99.90;;;;;;5115903;28;20450;-73
2022/08/23 01:27:14;;;;;;;15.07;9.05;;;16.90;99.90;;;;;;5115778;28;20051;-74
2022/08/23 01:29:41;;;;;;;;;;;16.90;99.90;;;;;;5115770;28;20507;-74
2022/08/23 01:32:08;;;;;;;8.83;7.10;;;16.90;99.90;;;;;;5115786;28;19949;-74
2022/08/23 01:34:35;;;;;;;11.68;7.40;;;16.80;99.90;;;;;;5115710;28;20418;-77
2022/08/23 01:37:03;;;;;;;9.15;6.63;;;16.80;99.90;;;;;;5098763;28;20150;-74
2022/08/23 01:39:28;;;;;;;9.32;5.60;;;16.40;99.90;;;;;;5097515;28;20484;-73
2022/08/23 01:41:54;;;;;;;;;;;16.60;99.90;;;;;;5097744;28;20052;-75
2022/08/23 01:44:20;;;;;;;6.75;5.50;;;16.30;99.90;;;;;;5115865;28;19964;-75
2022/08/23 01:46:46;;;;;;;9.98;5.85;;;16.60;99.90;;;;;;5115396;28;20044;-73
2022/08/23 01:49:12;;;;;;;12.35;7.25;;;16.40;99.90;;;;;;5097144;28;20044;-74
2022/08/23 01:51:38;;;;;;;11.30;6.82;;;16.50;99.90;;;;;;5115077;28;20050;-73
2022/08/23 01:54:04;;;;;;;10.63;7.95;;;16.20;99.90;;;;;;5115306;28;20039;-73
2022/08/23 01:56:30;;;;;;;;;;;16.20;99.90;;;;;;5115676;28;20051;-74
2022/08/23 01:58:56;;;;;;;17.55;10.45;;;16.10;99.90;;;;;;5115282;28;20372;-73
2022/08/23 02:01:22;;;;;;;;;;;16.40;99.90;;;;;;5080493;28;20055;-74
2022/08/23 02:03:47;;;;;;;15.93;10.18;;;16.50;99.90;;;;;;5115485;28;19923;-73
2022/08/23 02:06:13;;;;;;;;;;;16.40;99.90;;;;;;5115053;28;20058;-72
2022/08/23 02:11:24;;;;;;;23.67;12.32;;;16.60;99.90;;;;;;5082680;28;20517;-74
2022/08/23 02:13:51;;;;;;;18.52;13.13;;;16.50;99.90;;;;;;5115256;28;20051;-74
2022/08/23 02:16:24;;;;;;;22.25;13.55;;;16.30;99.90;;;;;;5114842;28;20044;-73
2022/08/23 02:18:50;;;;;;;19.33;12.52;;;16.90;99.90;;;;;;5114524;28;20040;-77
2022/08/23 02:21:16;;;;;;;23.38;13.02;;;16.50;99.90;;;;;;5114789;28;20503;-76
2022/08/23 02:23:42;;;;;;;;;;;16.40;99.90;;;;;;5097126;28;20063;-76
2022/08/23 02:26:07;;;;;;;22.30;13.35;;;16.50;99.90;;;;;;5114753;28;20317;-74
2022/08/23 02:28:33;;;;;;;;;;;16.60;99.90;;;;;;5114792;28;20490;-74
2022/08/23 02:30:59;;;;;;;25.20;13.00;;;16.50;99.90;;;;;;5114708;28;19943;-73
2022/08/23 02:33:24;;;;;;;;;;;16.50;99.90;;;;;;5096725;28;20478;-74
2022/08/23 02:35:50;;;;;;;21.65;13.82;;;16.60;99.90;;;;;;5114511;28;20349;-72
2022/08/23 02:38:17;;;;;;;;;;;16.70;99.90;;;;;;5114949;28;20066;-74
2022/08/23 02:40:43;;;;;;;20.23;12.63;;;16.80;99.90;;;;;;5114495;28;19919;-76
2022/08/23 02:43:09;;;;;;;;;;;16.70;99.90;;;;;;5115086;28;20092;-76
2022/08/23 02:45:35;;;;;;;21.87;12.40;;;16.60;99.90;;;;;;5114415;28;19938;-75
2022/08/23 02:48:01;;;;;;;23.48;14.38;;;16.50;99.90;;;;;;5095919;28;20052;-75
2022/08/23 02:50:27;;;;;;;21.15;14.93;;;16.40;99.90;;;;;;5096452;28;20130;-74
2022/08/23 02:52:53;;;;;;;;;;;16.20;99.90;;;;;;5114611;28;20185;-73
2022/08/23 02:55:20;;;;;;;21.47;15.60;;;16.50;99.90;;;;;;5114186;28;19920;-72
2022/08/23 02:57:46;;;;;;;23.48;16.50;;;16.40;99.90;;;;;;5114084;28;20051;-75
2022/08/23 03:00:12;;;;;;;;;;;16.30;99.90;;;;;;5114465;28;20499;-76
2022/08/23 03:02:39;;;;;;;21.67;13.90;;;16.30;99.90;;;;;;5113736;28;19923;-74
2022/08/23 03:05:07;;;;;;;20.75;14.43;;;16.30;99.90;;;;;;5114014;28;20048;-75
2022/08/23 03:07:32;;;;;;;23.25;16.48;;;16.00;99.90;;;;;;5113926;28;20047;-72
2022/08/23 03:09:58;;;;;;;;;;;16.40;99.90;;;;;;5114236;28;20376;-76
2022/08/23 03:12:25;;;;;;;30.55;17.70;;;16.70;99.90;;;;;;5113064;28;20022;-73
2022/08/23 03:14:51;;;;;;;31.05;19.42;;;16.10;99.90;;;;;;5113707;28;20051;-73
2022/08/23 03:17:17;;;;;;;;;;;16.40;99.90;;;;;;5113844;28;20050;-73
2022/08/23 03:19:43;;;;;;;29.70;20.02;;;16.10;99.90;;;;;;5095630;28;19994;-74
2022/08/23 03:22:08;;;;;;;;;;;16.30;99.90;;;;;;5114040;28;20054;-75
2022/08/23 03:24:35;;;;;;;29.25;19.55;;;16.20;99.90;;;;;;5113536;28;19923;-73
2022/08/23 03:27:01;;;;;;;28.10;19.08;;;16.30;99.90;;;;;;5113517;28;20040;-74
2022/08/23 03:29:27;;;;;;;31.23;19.45;;;16.20;99.90;;;;;;5113355;28;20059;-74
2022/08/23 03:31:53;;;;;;;;;;;16.20;99.90;;;;;;5113605;28;20055;-74
2022/08/23 03:34:19;;;;;;;26.90;17.70;;;16.60;99.90;;;;;;5095322;28;20318;-76
2022/08/23 03:36:45;;;;;;;;;;;16.30;99.90;;;;;;5113822;28;20438;-76
2022/08/23 03:39:11;;;;;;;29.23;18.30;;;16.20;99.90;;;;;;5095050;28;19919;-74
2022/08/23 03:41:36;;;;;;;;;;;16.00;99.90;;;;;;5113699;28;20046;-75
2022/08/23 03:44:03;;;;;;;31.90;18.73;;;16.50;99.90;;;;;;5095024;28;19920;-74
2022/08/23 03:46:29;;;;;;;25.42;19.23;;;16.30;99.90;;;;;;5112856;28;20048;-74
2022/08/23 03:48:55;;;;;;;;;;;16.00;99.90;;;;;;5095457;28;20046;-73
2022/08/23 03:51:23;;;;;;;34.70;18.73;;;16.40;99.90;;;;;;5113398;28;19924;-74
2022/08/23 03:53:49;;;;;;;33.50;19.70;;;16.20;99.90;;;;;;5113243;28;20472;-74
2022/08/23 03:56:25;;;;;;;28.48;19.73;;;16.40;99.90;;;;;;5113127;28;20074;-73
2022/08/23 03:58:51;;;;;;;28.80;18.73;;;16.30;99.90;;;;;;5113045;28;20047;-74
2022/08/23 04:01:16;;;;;;;;;;;16.10;99.90;;;;;;5112812;28;20051;-74
2022/08/23 04:03:42;;;;;;;30.17;19.90;;;16.00;99.90;;;;;;5113091;28;20006;-74
2022/08/23 04:06:08;;;;;;;;;;;16.20;99.90;;;;;;5095352;28;20050;-74
2022/08/23 04:08:34;;;;;;;32.65;20.40;;;16.50;99.90;;;;;;5112719;28;19923;-74
2022/08/23 04:11:00;;;;;;;;;;;16.20;99.90;;;;;;5113204;28;20055;-75
2022/08/23 04:13:28;;;;;;;29.40;19.65;;;16.00;99.90;;;;;;5112791;28;20006;-76
2022/08/23 04:15:54;;;;;;;28.83;20.13;;;16.10;99.90;;;;;;5112505;28;20184;-74
2022/08/23 04:18:20;;;;;;;30.20;20.63;;;16.10;99.90;;;;;;5112753;28;20052;-74
2022/08/23 04:20:46;;;;;;;;;;;16.20;99.90;;;;;;5113407;28;20076;-75
2022/08/23 04:23:12;;;;;;;30.02;20.33;;;16.10;99.90;;;;;;5112607;28;19926;-74
2022/08/23 04:25:38;;;;;;;34.63;20.90;;;16.30;99.90;;;;;;5094249;28;20043;-74
2022/08/23 04:28:04;;;;;;;;;;;16.40;99.90;;;;;;5112552;28;20045;-72
2022/08/23 04:30:31;;;;;;;27.55;20.70;;;16.40;99.90;;;;;;5112455;28;19923;-74
2022/08/23 04:32:57;;;;;;;31.35;21.98;;;16.30;99.90;;;;;;5112643;28;20108;-74
2022/08/23 04:35:24;;;;;;;;;;;15.90;99.90;;;;;;5094783;28;20368;-75
2022/08/23 04:37:50;;;;;;;28.83;20.02;;;16.30;99.90;;;;;;5112560;28;19931;-74
2022/08/23 04:43:01;;;;;;;30.35;21.25;;;18.10;99.90;;;;;;5112501;28;20100;-74
2022/08/23 04:45:27;;;;;;;34.45;22.33;;;16.30;99.90;;;;;;5112161;28;20044;-74
2022/08/23 04:47:53;;;;;;;29.00;20.35;;;16.20;99.90;;;;;;5112468;28;20052;-75
2022/08/23 04:50:20;;;;;;;;;;;16.10;99.90;;;;;;5112773;28;20058;-76
2022/08/23 04:52:46;;;;;;;27.92;18.95;;;16.20;99.90;;;;;;5094264;28;19923;-76
2022/08/23 04:55:12;;;;;;;22.40;16.17;;;16.10;99.90;;;;;;5094152;28;20544;-75
2022/08/23 04:57:41;;;;;;;;;;;16.10;99.90;;;;;;5112759;28;20047;-75
2022/08/23 05:00:10;;;;;;;30.08;20.48;;;16.20;99.90;;;;;;5112064;28;19963;-75
2022/08/23 05:02:37;;;;;;;25.92;20.73;;;16.20;99.90;;;;;;5112352;28;20051;-75
2022/08/23 05:05:03;;;;;;;27.20;19.40;;;16.10;99.90;;;;;;5094027;28;20051;-75
2022/08/23 05:07:30;;;;;;;29.80;20.00;;;16.10;99.90;;;;;;5112231;28;20055;-75
2022/08/23 05:09:56;;;;;;;28.60;20.00;;;16.10;99.90;;;;;;5093885;28;20055;-75
2022/08/23 05:12:21;;;;;;;;;;;16.20;99.90;;;;;;5094383;28;20054;-75
2022/08/23 05:14:47;;;;;;;34.47;20.48;;;16.30;99.90;;;;;;5111891;28;20271;-73
2022/08/23 05:17:13;;;;;;;;;;;16.40;99.90;;;;;;5112598;28;20490;-74
2022/08/23 05:19:38;;;;;;;31.75;20.77;;;16.20;99.90;;;;;;5111886;28;20395;-75
2022/08/23 05:22:04;;;;;;;;;;;16.50;99.90;;;;;;5112565;28;20112;-74
2022/08/23 05:24:30;;;;;;;28.23;20.50;;;16.20;99.90;;;;;;5112084;28;19924;-75
2022/08/23 05:26:55;;;;;;;;;;;16.50;99.90;;;;;;5112461;28;20048;-74
2022/08/23 05:29:21;;;;;;;31.35;20.52;;;16.00;99.90;;;;;;5111565;28;19965;-74
2022/08/23 05:31:47;;;;;;;;;;;16.30;99.90;;;;;;5094525;28;20051;-75
2022/08/23 05:34:13;;;;;;;31.60;21.58;;;16.50;99.90;;;;;;5111988;28;19927;-74
2022/08/23 05:36:39;;;;;;;;;;;16.50;99.90;;;;;;5095964;28;20046;-75
2022/08/23 05:39:05;;;;;;;26.95;20.35;;;16.60;99.90;;;;;;5080811;28;19929;-74
2022/08/23 05:41:31;;;;;;;28.92;21.42;;;16.30;99.90;;;;;;5115781;28;20048;-75
2022/08/23 05:43:57;;;;;;;;;;;16.40;99.90;;;;;;5098001;28;20402;-73
2022/08/23 05:46:22;;;;;;;28.65;21.48;;;16.50;99.90;;;;;;5115697;28;19927;-75
2022/08/23 05:48:49;;;;;;;;;;;16.40;99.90;;;;;;5115824;28;20043;-74
2022/08/23 05:51:15;;;;;;;36.65;22.90;;;16.70;99.90;;;;;;5115507;28;20421;-74
2022/08/23 05:53:41;;;;;;;;;;;16.80;99.90;;;;;;5115847;28;20051;-73
2022/08/23 05:56:19;;;;;;;31.48;23.30;;;16.70;99.90;;;;;;5115453;28;20322;-75
2022/08/23 05:58:46;;;;;;;31.33;23.88;;;16.90;99.90;;;;;;5115379;28;20047;-75
2022/08/23 06:01:13;;;;;;;34.00;25.30;;;16.70;99.90;;;;;;5115265;28;20055;-74
2022/08/23 06:03:40;;;;;;;36.10;25.05;;;17.20;99.90;;;;;;5097184;28;20055;-75
2022/08/23 06:06:06;;;;;;;37.67;25.75;;;16.70;99.90;;;;;;5115136;28;20056;-74
2022/08/23 06:08:33;;;;;;;34.50;25.40;;;16.80;99.90;;;;;;5114723;28;20518;-75
2022/08/23 06:11:02;;;;;;;34.05;24.48;;;17.00;99.90;;;;;;5114767;28;20039;-74
2022/08/23 06:13:28;;;;;;;30.38;23.55;;;17.20;99.90;;;;;;5096898;28;20165;-74
2022/08/23 06:15:54;;;;;;;30.50;22.58;;;17.30;99.90;;;;;;5096410;28;20134;-74
2022/08/23 06:18:20;;;;;;;24.73;21.85;;;17.10;99.90;;;;;;5114945;28;20035;-74
2022/08/23 06:20:45;;;;;;;;;;;17.30;99.90;;;;;;5080259;28;20062;-74
2022/08/23 06:23:11;;;;;;;26.83;20.83;;;17.40;99.90;;;;;;5114819;28;19927;-73
2022/08/23 06:25:38;;;;;;;27.80;20.92;;;17.30;99.90;;;;;;5114495;28;20066;-74
2022/08/23 06:28:03;;;;;;;25.83;19.98;;;17.70;99.90;;;;;;5114762;28;20055;-74
2022/08/23 06:30:29;;;;;;;27.83;20.30;;;17.80;99.90;;;;;;5114188;28;20109;-71
2022/08/23 06:32:55;;;;;;;;;;;18.10;99.90;;;;;;5115030;28;20052;-73
2022/08/23 06:35:20;;;;;;;24.63;19.48;;;17.90;99.90;;;;;;5114578;28;20008;-73
2022/08/23 06:37:46;;;;;;;;;;;17.80;99.90;;;;;;5096388;28;20463;-71
2022/08/23 06:40:12;;;;;;;24.48;18.38;;;18.30;99.90;;;;;;5114143;28;20002;-72
2022/08/23 06:42:37;;;;;;;;;;;18.50;99.90;;;;;;5114837;28;20043;-73
2022/08/23 06:45:05;;;;;;;20.95;16.13;;;18.40;99.90;;;;;;5114119;28;19930;-73
2022/08/23 06:47:30;;;;;;;19.80;16.80;;;18.50;99.90;;;;;;5114356;28;20407;-74
2022/08/23 06:49:56;;;;;;;24.17;16.08;;;18.70;99.90;;;;;;5095953;28;20039;-73
2022/08/23 06:52:22;;;;;;;23.42;15.48;;;18.60;99.90;;;;;;5114267;28;20104;-70
2022/08/23 06:54:48;;;;;;;17.20;13.70;;;19.00;99.90;;;;;;5095617;28;20387;-72
2022/08/23 06:57:13;;;;;;;16.80;13.98;;;19.10;99.90;;;;;;5079267;28;20054;-73
2022/08/23 06:59:39;;;;;;;24.33;14.40;;;19.20;99.90;;;;;;5114104;28;20409;-72
2022/08/23 07:02:07;;;;;;;16.50;13.05;;;19.10;99.90;;;;;;5114069;28;20051;-70
2022/08/23 07:04:36;;;;;;;18.77;13.25;;;19.70;99.90;;;;;;5114031;28;20067;-71
2022/08/23 07:07:03;;;;;;;13.23;11.85;;;19.50;99.90;;;;;;5113922;28;20130;-72
2022/08/23 07:09:30;;;;;;;15.75;12.70;;;19.50;99.90;;;;;;5113513;28;20047;-70
2022/08/23 07:11:57;;;;;;;16.10;12.70;;;19.50;99.90;;;;;;5113825;28;20047;-74
2022/08/23 07:14:23;;;;;;;15.48;12.45;;;19.60;99.90;;;;;;5113818;28;20079;-72
2022/08/23 07:16:58;;;;;;;18.10;11.93;;;19.50;99.90;;;;;;5113748;28;20043;-73
2022/08/23 07:19:27;;;;;;;14.18;12.45;;;19.70;99.90;;;;;;5113776;28;20074;-73
2022/08/23 07:21:53;;;;;;;16.33;12.13;;;20.00;99.90;;;;;;5113663;28;20086;-71
2022/08/23 07:24:20;;;;;;;14.30;11.45;;;20.20;99.90;;;;;;5095410;28;20055;-70
2022/08/23 07:26:47;;;;;;;14.50;11.23;;;20.20;99.90;;;;;;5113584;28;20043;-72
2022/08/23 07:29:14;;;;;;;16.42;11.80;;;20.20;99.90;;;;;;5113169;28;20048;-72
2022/08/23 07:31:44;;;;;;;16.90;11.25;;;20.50;99.90;;;;;;5113488;28;20087;-71
2022/08/23 07:34:09;;;;;;;16.02;10.88;;;20.50;99.90;;;;;;5113472;28;20051;-73
2022/08/23 07:36:38;;;;;;;12.23;10.73;;;20.60;99.90;;;;;;5113693;28;20047;-72
2022/08/23 07:39:05;;;;;;;14.40;10.55;;;20.40;99.90;;;;;;5113092;28;20468;-73
2022/08/23 07:41:31;;;;;;;12.38;10.88;;;20.80;99.90;;;;;;5113284;28;20051;-71
2022/08/23 07:44:00;;;;;;;13.63;11.02;;;21.00;99.90;;;;;;5113244;28;20126;-73
2022/08/23 07:46:26;;;;;;;15.82;11.23;;;21.10;99.90;;;;;;5094970;28;20043;-73
2022/08/23 07:48:52;;;;;;;13.82;10.30;;;21.20;99.90;;;;;;5112801;28;20766;-73
2022/08/23 07:51:18;;;;;;;18.58;10.40;;;21.20;99.90;;;;;;5113081;28;20054;-74
2022/08/23 07:53:44;;;;;;;12.93;10.20;;;21.50;99.90;;;;;;5113113;28;20055;-74
2022/08/23 07:56:11;;;;;;;13.45;10.27;;;21.50;99.90;;;;;;5094675;28;20039;-71
2022/08/23 07:58:38;;;;;;;14.55;10.20;;;21.50;99.90;;;;;;5112471;28;20050;-73
2022/08/23 08:01:16;;;;;;;14.00;9.95;;;22.00;99.90;;;;;;5112944;28;20070;-73
2022/08/23 08:03:47;;;;;;;13.50;10.57;;;21.80;99.90;;;;;;5112931;28;20040;-71
2022/08/23 08:06:21;;;;;;;14.43;9.82;;;22.10;99.90;;;;;;5112947;28;20087;-73
2022/08/23 08:08:48;;;;;;;12.52;10.45;;;22.10;99.90;;;;;;5112490;28;20048;-73
2022/08/23 08:11:16;;;;;;;11.57;9.38;;;22.20;99.90;;;;;;5112771;28;20096;-73
2022/08/23 08:13:44;;;;;;;15.07;9.27;;;22.40;99.90;;;;;;5112809;28;20047;-72
2022/08/23 08:16:19;;;;;;;12.45;7.88;;;22.00;99.90;;;;;;5112720;28;20055;-73
2022/08/23 08:18:44;;;;;;;10.75;7.57;;;22.40;99.90;;;;;;5112704;28;20081;-73
2022/08/23 08:21:14;;;;;;;10.55;8.32;;;22.40;99.90;;;;;;5112360;28;20040;-72
2022/08/23 08:23:39;;;;;;;11.60;7.15;;;22.00;99.90;;;;;;5112662;28;20051;-73
2022/08/23 08:26:07;;;;;;;11.35;8.98;;;22.60;99.90;;;;;;5077680;28;20135;-74
2022/08/23 08:28:35;;;;;;;15.20;8.73;;;22.80;99.90;;;;;;5112358;28;20040;-74
2022/08/23 08:31:02;;;;;;;11.85;9.32;;;22.50;99.90;;;;;;5094375;28;20044;-74
2022/08/23 08:33:29;;;;;;;12.05;8.60;;;23.10;99.90;;;;;;5112524;28;20047;-74
2022/08/23 08:35:55;;;;;;;11.02;9.13;;;22.50;99.90;;;;;;5111866;28;20550;-74
2022/08/23 08:38:21;;;;;;;13.80;9.13;;;22.70;99.90;;;;;;5112176;28;20052;-70
2022/08/23 08:41:04;;;;;;;11.18;10.07;;;23.10;99.90;;;;;;5112259;28;20048;-71
2022/08/23 08:43:43;;;;;;;11.35;9.02;;;22.90;99.90;;;;;;5112382;28;20494;-73
2022/08/23 08:46:27;;;;;;;11.55;9.88;;;23.50;99.90;;;;;;5112411;28;20044;-73
2022/08/23 08:48:56;;;;;;;10.38;8.13;;;23.80;99.90;;;;;;5094235;28;20433;-73
2022/08/23 08:51:49;;;;;;;11.82;8.45;;;23.40;99.90;;;;;;5093861;28;20426;-74
2022/08/23 08:54:20;;;;;;;13.05;8.40;;;23.40;99.90;;;;;;5112346;28;20081;-73
2022/08/23 08:56:50;;;;;;;11.75;9.15;;;23.70;99.90;;;;;;5112295;28;20142;-75
2022/08/23 08:59:22;;;;;;;9.32;7.63;;;23.40;99.90;;;;;;5112166;28;20487;-74
2022/08/23 09:01:48;;;;;;;12.30;7.80;;;23.40;99.90;;;;;;5112277;28;20404;-73
2022/08/23 09:04:14;;;;;;;10.32;7.05;;;23.90;99.90;;;;;;5112118;28;20047;-74
2022/08/23 09:07:35;;;;;;;11.63;7.95;;;23.70;99.90;;;;;;5111913;28;20051;-74
2022/08/23 09:10:22;;;;;;;9.75;7.30;;;24.00;99.90;;;;;;5009279;28;20050;-74
2022/08/23 09:13:02;;;;;;;8.27;7.13;;;24.10;99.90;;;;;;5115932;28;20055;-72
2022/08/23 09:15:47;;;;;;;9.07;6.20;;;24.50;99.90;;;;;;5116407;28;20451;-74
2022/08/23 09:18:15;;;;;;;9.32;6.50;;;24.90;99.90;;;;;;5116072;28;20047;-75
2022/08/23 09:20:43;;;;;;;9.48;6.43;;;24.90;99.90;;;;;;5115696;28;20507;-72
2022/08/23 09:23:16;;;;;;;10.07;6.50;;;25.30;99.90;;;;;;5115943;28;20054;-72
2022/08/23 09:26:01;;;;;;;9.63;6.00;;;25.20;99.90;;;;;;5116087;28;20048;-73
2022/08/23 09:28:33;;;;;;;10.52;6.65;;;25.50;99.90;;;;;;5115922;28;20044;-72
2022/08/23 09:31:00;;;;;;;8.63;5.80;;;25.70;99.90;;;;;;5097764;28;20090;-74
2022/08/23 09:33:37;;;;;;;6.72;4.35;;;26.00;99.90;;;;;;5115827;28;20058;-74
2022/08/23 09:36:22;;;;;;;9.18;5.15;;;25.50;99.90;;;;;;5115491;28;20048;-74
2022/08/23 09:38:56;;;;;;;7.13;5.75;;;25.70;99.90;;;;;;5115501;28;20055;-75
2022/08/23 09:41:26;;;;;;;12.50;4.97;;;25.80;99.90;;;;;;5097451;28;20403;-75
2022/08/23 09:43:54;;;;;;;6.95;5.20;;;25.60;99.90;;;;;;5115577;28;20049;-75
2022/08/23 09:46:37;;;;;;;8.93;4.35;;;26.00;99.90;;;;;;5115560;28;20070;-73
2022/08/23 09:49:29;;;;;;;6.28;4.85;;;25.80;99.90;;;;;;5115178;28;20047;-74
2022/08/23 09:52:08;;;;;;;6.78;4.45;;;26.40;99.90;;;;;;5110569;28;20384;-74
2022/08/23 09:54:35;;;;;;;8.20;4.28;;;26.00;99.90;;;;;;5115416;28;20047;-73
2022/08/23 09:57:04;;;;;;;8.18;3.67;;;26.50;99.90;;;;;;5115602;28;20169;-75
2022/08/23 09:59:50;;;;;;;7.60;3.60;;;26.40;99.90;;;;;;5115294;28;20100;-72
2022/08/23 10:02:30;;;;;;;5.65;3.40;;;26.00;99.90;;;;;;5114195;28;20051;-74
2022/08/23 10:05:26;;;;;;;7.78;3.95;;;26.60;99.90;;;;;;5096843;28;20412;-74
2022/08/23 10:08:03;;;;;;;7.10;3.30;;;26.50;99.90;;;;;;5115246;28;20047;-70
2022/08/23 10:10:45;;;;;;;6.40;3.67;;;26.90;99.90;;;;;;5115025;28;20051;-73
2022/08/23 10:13:12;;;;;;;6.68;3.28;;;26.70;99.90;;;;;;5115117;28;20118;-74
2022/08/23 10:15:56;;;;;;;6.97;4.00;;;26.90;99.90;;;;;;5114955;28;20055;-69
2022/08/23 10:18:39;;;;;;;7.38;3.40;;;26.90;99.90;;;;;;5096435;28;20048;-75
2022/08/23 10:21:16;;;;;;;5.63;3.40;;;27.30;99.90;;;;;;5114913;28;20087;-74
2022/08/23 10:24:11;;;;;;;8.52;3.65;;;27.50;99.90;;;;;;5114611;28;20126;-69
2022/08/23 10:26:46;;;;;;;7.13;3.55;;;27.50;99.90;;;;;;5109499;28;20105;-71
2022/08/23 10:29:36;;;;;;;9.73;3.90;;;27.60;99.90;;;;;;5114210;28;20518;-73
2022/08/23 10:32:25;;;;;;;8.25;3.55;;;27.50;99.90;;;;;;5114468;28;20131;-73
2022/08/23 10:35:29;;;;;;;5.75;3.50;;;27.60;99.90;;;;;;5114698;28;20130;-73
2022/08/23 10:38:14;;;;;;;8.23;3.97;;;27.60;99.90;;;;;;5114623;28;20051;-72
2022/08/23 10:40:53;;;;;;;5.25;3.22;;;28.20;99.90;;;;;;5114530;28;20051;-74
2022/08/23 10:43:29;;;;;;;6.10;3.80;;;27.90;99.90;;;;;;5114480;28;20052;-74
2022/08/23 10:45:57;;;;;;;6.95;3.38;;;28.00;99.90;;;;;;5114426;28;20059;-71
2022/08/23 10:48:28;;;;;;;5.38;3.58;;;28.10;99.90;;;;;;5113928;28;20051;-72
2022/08/23 10:51:02;;;;;;;9.80;3.65;;;28.20;99.90;;;;;;5114438;28;20078;-72
2022/08/23 10:53:48;;;;;;;5.43;3.30;;;28.40;99.90;;;;;;5114289;28;20056;-73
2022/08/23 10:56:18;;;;;;;7.10;2.92;;;27.70;99.90;;;;;;5114314;28;20039;-74
2022/08/23 10:58:53;;;;;;;5.45;2.60;;;28.40;99.90;;;;;;5114102;28;20051;-73
2022/08/23 11:01:22;;;;;;;5.90;2.70;;;28.40;99.90;;;;;;5113895;28;20047;-74
2022/08/23 11:04:13;;;;;;;7.47;3.47;;;28.40;99.90;;;;;;5114073;28;20041;-75
2022/08/23 11:06:49;;;;;;;5.88;2.65;;;28.20;99.90;;;;;;5114050;28;20051;-74
2022/08/23 11:09:18;;;;;;;7.25;3.00;;;28.20;99.90;;;;;;5113989;28;20122;-73
2022/08/23 11:12:03;;;;;;;4.63;2.92;;;28.30;99.90;;;;;;5113600;28;20419;-73
2022/08/23 11:14:57;;;;;;;4.40;2.35;;;27.90;99.90;;;;;;5113878;28;20047;-73
2022/08/23 11:17:36;;;;;;;5.20;2.58;;;27.90;99.90;;;;;;5113313;28;20047;-74
2022/08/23 11:20:09;;;;;;;6.40;2.90;;;28.00;99.90;;;;;;5114091;28;20108;-70
2022/08/23 11:22:56;;;;;;;7.13;2.88;;;28.10;99.90;;;;;;5113869;28;20199;-71
2022/08/23 11:25:24;;;;;;;4.43;2.58;;;28.30;99.90;;;;;;5113649;28;20039;-73
2022/08/23 11:28:33;;;;;;;6.13;2.60;;;28.50;99.90;;;;;;5113625;28;20089;-72
2022/08/23 11:31:08;;;;;;;7.63;3.22;;;28.70;99.90;;;;;;5112478;28;20130;-74
2022/08/23 11:34:05;;;;;;;6.40;2.58;;;28.80;99.90;;;;;;5112846;28;20055;-71
2022/08/23 11:36:32;;;;;;;8.15;2.60;;;28.60;99.90;;;;;;5095233;28;20098;-69
2022/08/23 11:38:59;;;;;;;8.95;2.47;;;28.90;99.90;;;;;;5095379;28;20087;-73
2022/08/23 11:41:31;;;;;;;5.10;2.78;;;28.70;99.90;;;;;;5095268;28;20463;-74
2022/08/23 11:44:03;;;;;;;7.57;2.63;;;28.70;99.90;;;;;;5113364;28;20122;-74
2022/08/23 11:46:54;;;;;;;7.30;2.45;;;29.20;99.90;;;;;;5112982;28;20108;-68
2022/08/23 11:49:25;;;;;;;8.40;2.90;;;28.90;99.90;;;;;;5112499;28;20044;-75
2022/08/23 11:52:15;;;;;;;6.07;2.90;;;29.20;99.90;;;;;;5094660;28;20596;-72
2022/08/23 11:55:18;;;;;;;7.93;2.40;;;29.80;99.90;;;;;;5113130;28;20122;-77
2022/08/23 11:58:16;;;;;;;5.90;2.65;;;29.50;99.90;;;;;;5112801;28;20444;-73
2022/08/23 12:01:05;;;;;;;4.10;2.40;;;30.00;99.70;;;;;;5060921;28;20463;-74
2022/08/23 12:03:49;;;;;;;4.38;2.13;;;29.80;99.40;;;;;;5113003;28;20403;-74
2022/08/23 12:06:18;;;;;;;5.18;2.05;;;29.90;98.90;;;;;;5112949;28;20716;-73
2022/08/23 12:08:59;;;;;;;7.68;2.70;;;29.90;99.80;;;;;;5112459;28;20407;-73
2022/08/23 12:11:54;;;;;;;4.65;2.25;;;29.80;98.10;;;;;;5112881;28;20130;-76
2022/08/23 12:14:31;;;;;;;4.18;2.45;;;29.90;96.70;;;;;;5112409;28;20044;-73
2022/08/23 12:17:26;;;;;;;6.13;2.67;;;29.90;99.70;;;;;;5112711;28;20048;-75
2022/08/23 12:20:06;;;;;;;4.00;2.50;;;30.00;99.40;;;;;;5112605;28;20043;-70
2022/08/23 12:22:58;;;;;;;8.15;2.83;;;30.30;99.00;;;;;;5112621;28;20048;-75
2022/08/23 12:25:24;;;;;;;6.60;2.70;;;29.70;98.30;;;;;;5100666;28;20055;-72
2022/08/23 12:27:58;;;;;;;5.68;2.90;;;30.10;99.90;;;;;;5112264;28;20054;-74
2022/08/23 12:30:37;;;;;;;5.30;2.63;;;29.80;98.80;;;;;;5112557;28;20081;-74
2022/08/23 12:33:13;;;;;;;6.70;2.95;;;29.60;98.40;;;;;;5112300;28;20506;-74
2022/08/23 12:35:53;;;;;;;7.95;2.83;;;29.50;98.70;;;;;;5112546;28;20079;-74
2022/08/23 12:38:31;;;;;;;6.70;2.72;;;29.40;99.20;;;;;;5112266;28;20373;-72
2022/08/23 12:40:57;;;;;;;7.65;3.15;;;29.40;99.10;;;;;;5094187;28;20368;-71
2022/08/23 12:43:26;;;;;;;6.78;3.50;;;29.40;99.90;;;;;;5112123;28;20077;-73
2022/08/23 12:45:56;;;;;;;5.40;2.40;;;29.60;99.80;;;;;;5114869;28;20123;-74
2022/08/23 12:48:25;;;;;;;8.77;3.17;;;29.70;99.90;;;;;;5116607;28;20040;-73
2022/08/23 12:51:00;;;;;;;4.55;2.78;;;29.60;99.70;;;;;;5116605;28;20146;-73
2022/08/23 12:53:39;;;;;;;7.75;3.17;;;29.80;98.90;;;;;;5116638;28;20846;-73
2022/08/23 12:56:09;;;;;;;5.65;2.85;;;30.10;98.40;;;;;;5116619;28;20052;-73
2022/08/23 12:58:38;;;;;;;7.93;3.30;;;30.40;98.90;;;;;;5116468;28;20047;-73
2022/08/23 13:01:15;;;;;;;7.95;3.00;;;30.00;99.40;;;;;;5116357;28;20051;-71
2022/08/23 13:03:45;;;;;;;6.68;2.80;;;30.20;99.40;;;;;;5116463;28;20047;-73
2022/08/23 13:06:17;;;;;;;8.13;2.90;;;29.90;98.90;;;;;;5116279;28;20055;-74
2022/08/23 13:09:02;;;;;;;5.22;2.70;;;30.00;98.10;;;;;;5116291;28;20050;-74
2022/08/23 13:11:31;;;;;;;7.80;2.83;;;30.40;98.30;;;;;;5116176;28;20472;-74
2022/08/23 13:13:57;;;;;;;8.27;2.72;;;30.60;98.60;;;;;;5098280;28;20048;-74
2022/08/23 13:16:35;;;;;;;6.32;4.00;;;30.30;98.30;;;;;;5116329;28;20059;-73
2022/08/23 13:19:12;;;;;;;8.88;5.30;;;30.40;99.80;;;;;;5116121;28;20085;-74
2022/08/23 13:21:38;;;;;;;8.38;5.22;;;30.40;99.90;;;;;;5116107;28;20048;-76